Time;durP1;ratioP1;P1;durP2;ratioP2;P2;SDS_P1;SDS_P2;PMS_P1;PMS_P2;Temp;Humidity;BMP_temperature;BMP_pressure;BME280_temperature;BME280_humidity;BME280_pressure;Samples;Min_cycle;Max_cycle;Signal;HPM_P1;HPM_P2
2022/07/14 00:00:19;;;;;;;7.65;2.00;;;19.90;99.90;;;;;;5076245;28;20052;-70
2022/07/14 00:02:44;;;;;;;9.40;2.00;;;19.90;99.90;;;;;;5076725;28;20033;-70
2022/07/14 00:05:10;;;;;;;9.70;2.00;;;19.90;99.90;;;;;;5077276;28;20037;-70
2022/07/14 00:07:36;;;;;;;6.53;1.95;;;19.80;99.90;;;;;;5076878;28;20033;-68
2022/07/14 00:10:03;;;;;;;8.80;2.30;;;19.80;99.90;;;;;;5076763;28;20040;-69
2022/07/14 00:12:29;;;;;;;8.25;2.20;;;19.90;99.90;;;;;;5076801;28;20047;-67
2022/07/14 00:14:55;;;;;;;8.77;2.13;;;19.90;99.90;;;;;;5076875;28;20112;-69
2022/07/14 00:17:20;;;;;;;5.90;2.17;;;20.00;99.90;;;;;;5076332;28;20115;-68
2022/07/14 00:19:46;;;;;;;6.82;2.50;;;19.90;99.90;;;;;;5077389;28;20285;-69
2022/07/14 00:22:12;;;;;;;8.85;2.42;;;20.00;99.90;;;;;;5077028;28;20029;-69
2022/07/14 00:24:38;;;;;;;4.75;2.03;;;19.90;99.90;;;;;;5080707;28;20039;-68
2022/07/14 00:27:04;;;;;;;8.68;2.00;;;19.80;99.90;;;;;;5080494;28;20035;-68
2022/07/14 00:29:30;;;;;;;4.72;1.90;;;19.90;99.90;;;;;;5063140;28;20033;-67
2022/07/14 00:31:55;;;;;;;4.95;2.08;;;19.90;99.90;;;;;;5080565;28;20112;-70
2022/07/14 00:34:21;;;;;;;4.47;1.48;;;19.90;99.90;;;;;;5079995;28;20047;-69
2022/07/14 00:36:47;;;;;;;6.47;1.88;;;19.90;99.90;;;;;;5079796;28;20047;-68
2022/07/14 00:39:12;;;;;;;6.50;2.03;;;19.90;99.90;;;;;;5063131;28;20055;-68
2022/07/14 00:41:38;;;;;;;8.27;2.40;;;20.00;99.90;;;;;;5080269;28;20163;-69
2022/07/14 00:44:04;;;;;;;5.93;1.70;;;20.10;99.90;;;;;;5063001;28;20044;-69
2022/07/14 00:46:30;;;;;;;6.82;1.90;;;20.00;99.90;;;;;;5080095;28;20020;-69
2022/07/14 00:48:55;;;;;;;4.95;1.58;;;20.10;99.90;;;;;;5080145;28;20025;-68
2022/07/14 00:51:21;;;;;;;7.05;2.42;;;20.00;99.90;;;;;;5079941;28;20039;-70
2022/07/14 00:53:56;;;;;;;5.32;2.13;;;20.00;99.90;;;;;;5080277;28;20033;-68
2022/07/14 00:56:23;;;;;;;5.53;1.75;;;19.90;99.90;;;;;;5079890;28;20293;-69
2022/07/14 00:58:49;;;;;;;4.90;2.10;;;20.00;99.90;;;;;;5080075;28;20029;-69
2022/07/14 01:01:15;;;;;;;8.50;2.10;;;20.00;99.90;;;;;;5080167;28;20493;-69
2022/07/14 01:03:41;;;;;;;7.75;2.08;;;20.00;99.90;;;;;;5079595;28;20111;-68
2022/07/14 01:06:07;;;;;;;7.22;2.08;;;20.00;99.90;;;;;;5079727;28;20040;-68
2022/07/14 01:08:32;;;;;;;7.82;1.92;;;20.00;99.90;;;;;;5080359;28;20033;-69
2022/07/14 01:10:58;;;;;;;8.82;2.00;;;20.00;99.90;;;;;;5079680;28;20296;-70
2022/07/14 01:13:24;;;;;;;8.40;2.15;;;19.90;99.90;;;;;;5079689;28;20048;-70
2022/07/14 01:15:52;;;;;;;5.95;2.30;;;20.00;99.90;;;;;;5078910;28;20127;-68
2022/07/14 01:18:18;;;;;;;10.30;2.60;;;20.00;99.90;;;;;;5078583;28;20056;-69
2022/07/14 01:20:45;;;;;;;5.93;2.08;;;20.00;99.90;;;;;;5079476;28;20304;-69
2022/07/14 01:23:10;;;;;;;7.30;2.20;;;19.90;99.90;;;;;;5078539;28;20032;-69
2022/07/14 01:25:36;;;;;;;6.90;2.38;;;19.90;99.90;;;;;;5079439;28;20025;-70
2022/07/14 01:28:02;;;;;;;9.77;2.50;;;19.70;99.90;;;;;;5079236;28;20043;-69
2022/07/14 01:30:28;;;;;;;6.82;2.20;;;19.70;99.90;;;;;;5079444;28;20346;-69
2022/07/14 01:32:54;;;;;;;9.65;2.90;;;19.80;99.90;;;;;;5079302;28;20036;-68
2022/07/14 01:35:19;;;;;;;9.75;2.28;;;19.90;99.90;;;;;;5077943;28;20047;-70
2022/07/14 01:37:48;;;;;;;5.85;2.45;;;19.90;99.90;;;;;;5079096;28;20055;-66
2022/07/14 01:40:14;;;;;;;6.13;2.65;;;20.00;99.90;;;;;;5079477;28;20033;-69
2022/07/14 01:42:41;;;;;;;8.80;2.65;;;20.00;99.90;;;;;;5078403;28;20036;-67
2022/07/14 01:45:09;;;;;;;8.02;2.28;;;19.90;99.90;;;;;;5078106;28;20420;-69
2022/07/14 01:47:35;;;;;;;8.20;2.65;;;20.00;99.90;;;;;;5079102;28;20086;-67
2022/07/14 01:50:01;;;;;;;5.88;2.35;;;20.00;99.90;;;;;;5078869;28;20032;-68
2022/07/14 01:52:30;;;;;;;6.57;2.90;;;19.90;99.90;;;;;;5045756;28;20308;-67
2022/07/14 01:54:56;;;;;;;7.30;2.80;;;19.90;99.90;;;;;;5078025;28;20100;-68
2022/07/14 01:57:23;;;;;;;8.50;2.75;;;19.80;99.90;;;;;;5061801;28;20093;-67
2022/07/14 01:59:51;;;;;;;8.60;3.08;;;19.70;99.90;;;;;;5078164;28;20186;-69
2022/07/14 02:02:17;;;;;;;8.40;2.90;;;19.70;99.90;;;;;;5077929;28;20435;-66
2022/07/14 02:04:43;;;;;;;8.45;2.55;;;19.70;99.90;;;;;;5077743;28;20029;-71
2022/07/14 02:07:10;;;;;;;9.27;3.30;;;19.70;99.90;;;;;;5078202;28;20036;-68
2022/07/14 02:12:41;;;;;;;5.50;2.65;;;19.60;99.90;;;;;;5078049;28;20048;-69
2022/07/14 02:15:10;;;;;;;10.23;2.88;;;19.60;99.90;;;;;;5077997;28;20037;-68
2022/07/14 02:17:37;;;;;;;7.78;2.65;;;19.70;99.90;;;;;;5077198;28;20068;-67
2022/07/14 02:20:04;;;;;;;8.13;3.03;;;19.70;99.90;;;;;;5077547;28;20308;-70
2022/07/14 02:22:31;;;;;;;10.23;3.00;;;19.50;99.90;;;;;;5077224;28;20021;-68
2022/07/14 02:24:56;;;;;;;11.43;3.30;;;19.40;99.90;;;;;;5078116;28;20106;-68
2022/07/14 02:27:23;;;;;;;8.50;3.03;;;19.40;99.90;;;;;;5077170;28;20340;-68
2022/07/14 02:29:51;;;;;;;12.38;3.63;;;19.40;99.90;;;;;;5077208;28;20063;-68
2022/07/14 02:32:17;;;;;;;9.68;3.03;;;19.30;99.90;;;;;;5077134;28;20032;-69
2022/07/14 02:34:46;;;;;;;10.13;3.22;;;19.20;99.90;;;;;;5078926;28;20036;-66
2022/07/14 02:37:12;;;;;;;7.00;3.15;;;19.10;99.90;;;;;;5077907;28;20028;-69
2022/07/14 02:39:38;;;;;;;6.78;2.75;;;19.10;99.90;;;;;;5077128;28;20097;-69
2022/07/14 02:42:04;;;;;;;5.60;2.70;;;19.10;99.90;;;;;;5060921;28;20099;-68
2022/07/14 02:44:31;;;;;;;11.98;3.10;;;19.00;99.90;;;;;;5076922;28;20055;-70
2022/07/14 02:46:57;;;;;;;7.60;2.80;;;18.90;99.90;;;;;;5076477;28;20415;-69
2022/07/14 02:49:22;;;;;;;9.55;3.47;;;18.80;99.90;;;;;;5077579;28;20028;-68
2022/07/14 02:51:48;;;;;;;7.70;3.40;;;18.70;99.90;;;;;;5077735;28;20031;-69
2022/07/14 02:54:14;;;;;;;10.15;3.58;;;18.60;99.90;;;;;;5077831;28;20040;-69
2022/07/14 02:56:39;;;;;;;8.50;3.72;;;18.60;99.90;;;;;;5076977;28;20041;-68
2022/07/14 02:59:07;;;;;;;9.75;3.60;;;18.60;99.90;;;;;;5076937;28;20043;-69
2022/07/14 03:01:34;;;;;;;9.95;3.97;;;18.60;99.90;;;;;;5077088;28;20028;-68
2022/07/14 03:04:00;;;;;;;12.27;4.20;;;18.40;99.90;;;;;;5076951;28;20036;-68
2022/07/14 03:06:26;;;;;;;10.05;4.05;;;18.30;99.90;;;;;;5077257;28;20436;-68
2022/07/14 03:08:52;;;;;;;11.18;4.32;;;18.40;99.90;;;;;;5077017;28;20056;-68
2022/07/14 03:11:20;;;;;;;12.80;4.80;;;18.50;99.90;;;;;;5077465;28;20040;-69
2022/07/14 03:13:46;;;;;;;12.02;4.25;;;18.30;99.90;;;;;;5077147;28;20424;-69
2022/07/14 03:16:13;;;;;;;14.82;4.60;;;18.30;99.90;;;;;;5077157;28;20359;-69
2022/07/14 03:18:41;;;;;;;6.43;3.67;;;18.10;99.90;;;;;;5076979;28;20033;-66
2022/07/14 03:21:12;;;;;;;10.13;4.30;;;18.10;99.90;;;;;;5060113;28;20028;-68
2022/07/14 03:23:44;;;;;;;10.27;4.20;;;18.20;99.90;;;;;;5076693;28;20024;-68
2022/07/14 03:26:14;;;;;;;8.63;4.30;;;18.10;99.90;;;;;;5076637;28;20020;-68
2022/07/14 03:28:40;;;;;;;7.43;3.65;;;18.10;99.90;;;;;;5077493;28;20384;-68
2022/07/14 03:31:06;;;;;;;12.02;4.22;;;18.00;99.90;;;;;;5076985;28;20043;-67
2022/07/14 03:33:33;;;;;;;9.45;4.00;;;17.90;99.90;;;;;;5076599;28;20028;-67
2022/07/14 03:35:59;;;;;;;8.25;3.92;;;17.90;99.90;;;;;;5076557;28;20469;-69
2022/07/14 03:38:26;;;;;;;11.77;4.15;;;17.90;99.90;;;;;;5076828;28;20024;-69
2022/07/14 03:40:55;;;;;;;9.40;3.70;;;17.80;99.90;;;;;;5076334;28;20119;-69
2022/07/14 03:43:21;;;;;;;9.88;4.07;;;17.80;99.90;;;;;;5076373;28;20128;-69
2022/07/14 03:45:47;;;;;;;11.88;4.05;;;17.70;99.90;;;;;;5076199;28;20131;-67
2022/07/14 03:48:15;;;;;;;7.68;3.67;;;17.80;99.90;;;;;;5076243;28;20316;-70
2022/07/14 03:50:45;;;;;;;9.55;4.03;;;17.90;99.90;;;;;;5076412;28;20063;-69
2022/07/14 03:53:11;;;;;;;11.95;4.43;;;17.90;99.90;;;;;;5076510;28;20032;-68
2022/07/14 03:55:37;;;;;;;12.60;4.18;;;17.90;99.90;;;;;;5076031;28;20091;-67
2022/07/14 03:58:03;;;;;;;7.18;3.92;;;18.00;99.90;;;;;;5078051;28;20098;-69
2022/07/14 04:00:31;;;;;;;13.02;4.38;;;18.00;99.90;;;;;;5063684;28;20434;-67
2022/07/14 04:02:57;;;;;;;10.27;4.65;;;18.10;99.90;;;;;;5080055;28;20285;-69
2022/07/14 04:05:26;;;;;;;10.82;4.57;;;18.20;99.90;;;;;;5080251;28;20355;-69
2022/07/14 04:07:59;;;;;;;10.75;4.38;;;18.10;99.90;;;;;;5079957;28;20143;-67
2022/07/14 04:10:26;;;;;;;6.35;4.25;;;18.20;99.90;;;;;;5079988;28;20029;-69
2022/07/14 04:12:52;;;;;;;8.00;4.05;;;18.20;99.90;;;;;;5063713;28;20039;-68
2022/07/14 04:15:18;;;;;;;11.30;4.78;;;18.10;99.90;;;;;;5079990;28;20025;-67
2022/07/14 04:17:44;;;;;;;8.60;4.43;;;18.20;99.90;;;;;;5079872;28;20039;-68
2022/07/14 04:20:10;;;;;;;11.73;5.03;;;18.20;99.90;;;;;;5080012;28;20384;-69
2022/07/14 04:22:37;;;;;;;9.68;4.50;;;18.10;99.90;;;;;;5080554;28;20281;-67
2022/07/14 04:25:05;;;;;;;14.68;4.50;;;18.20;99.90;;;;;;5079563;28;20350;-68
2022/07/14 04:27:32;;;;;;;12.90;4.35;;;18.10;99.90;;;;;;5079528;28;20021;-67
2022/07/14 04:29:59;;;;;;;8.75;3.90;;;18.20;99.90;;;;;;5079395;28;20115;-68
2022/07/14 04:32:25;;;;;;;7.72;3.90;;;18.30;99.90;;;;;;5079646;28;20102;-66
2022/07/14 04:34:51;;;;;;;9.52;4.03;;;18.40;99.90;;;;;;5079465;28;20036;-69
2022/07/14 04:37:18;;;;;;;11.85;4.13;;;18.50;99.90;;;;;;5079395;28;20037;-66
2022/07/14 04:39:44;;;;;;;8.07;3.90;;;18.50;99.90;;;;;;5079597;28;20043;-65
2022/07/14 04:42:11;;;;;;;10.00;3.63;;;18.50;99.90;;;;;;5079225;28;20396;-65
2022/07/14 04:44:41;;;;;;;8.98;3.83;;;18.40;99.90;;;;;;5079389;28;20415;-68
2022/07/14 04:47:08;;;;;;;8.05;3.35;;;18.50;99.90;;;;;;5079558;28;20135;-70
2022/07/14 04:52:20;;;;;;;8.82;3.50;;;18.40;99.90;;;;;;5079212;28;20392;-69
2022/07/14 04:54:59;;;;;;;12.40;3.80;;;18.30;99.90;;;;;;5079208;28;20089;-67
2022/07/14 04:58:06;;;;;;;10.10;3.67;;;18.40;99.90;;;;;;5078742;28;20124;-69
2022/07/14 05:00:32;;;;;;;8.82;2.95;;;18.50;99.90;;;;;;5062801;28;20053;-70
2022/07/14 05:02:58;;;;;;;10.02;3.35;;;18.50;99.90;;;;;;5079065;28;20106;-67
2022/07/14 05:05:24;;;;;;;11.75;3.55;;;18.70;99.90;;;;;;5080129;28;20448;-69
2022/07/14 05:07:50;;;;;;;10.75;3.33;;;18.60;99.90;;;;;;5079498;28;20043;-67
2022/07/14 05:10:17;;;;;;;11.90;3.05;;;18.70;99.90;;;;;;5078210;28;20043;-67
2022/07/14 05:12:43;;;;;;;9.35;3.10;;;18.70;99.90;;;;;;5080111;28;20400;-67
2022/07/14 05:15:09;;;;;;;9.32;2.95;;;18.70;99.90;;;;;;5079729;28;20082;-69
2022/07/14 05:17:35;;;;;;;8.65;3.08;;;18.70;99.90;;;;;;5079769;28;20033;-69
2022/07/14 05:20:05;;;;;;;8.68;2.72;;;18.70;99.90;;;;;;5079313;28;20040;-68
2022/07/14 05:22:42;;;;;;;13.02;3.50;;;18.50;99.90;;;;;;5079434;28;20049;-66
2022/07/14 05:25:12;;;;;;;7.70;2.38;;;18.30;99.90;;;;;;5079474;28;20113;-68
2022/07/14 05:27:39;;;;;;;11.75;2.88;;;18.20;99.90;;;;;;5080259;28;20035;-68
2022/07/14 05:30:07;;;;;;;12.90;3.13;;;18.30;99.90;;;;;;5078565;28;20069;-67
2022/07/14 05:32:35;;;;;;;8.45;2.85;;;18.30;99.90;;;;;;5078345;28;20123;-70
2022/07/14 05:35:03;;;;;;;8.95;2.90;;;18.50;99.90;;;;;;5078336;28;20422;-68
2022/07/14 05:37:29;;;;;;;9.48;2.97;;;18.70;99.90;;;;;;5078752;28;20037;-69
2022/07/14 05:39:55;;;;;;;14.00;2.85;;;18.80;99.90;;;;;;5078287;28;20051;-70
2022/07/14 05:42:21;;;;;;;10.65;3.10;;;18.90;99.90;;;;;;5078861;28;20304;-69
2022/07/14 05:44:49;;;;;;;15.30;3.47;;;18.90;99.90;;;;;;5078069;28;20036;-67
2022/07/14 05:47:15;;;;;;;13.23;2.72;;;19.00;99.90;;;;;;5078815;28;20024;-66
2022/07/14 05:49:42;;;;;;;11.00;2.90;;;19.30;99.90;;;;;;5078843;28;20020;-67
2022/07/14 05:52:11;;;;;;;12.60;2.88;;;19.30;99.90;;;;;;5078650;28;20043;-71
2022/07/14 05:54:37;;;;;;;11.23;2.63;;;19.50;99.90;;;;;;5077847;28;20036;-68
2022/07/14 05:57:04;;;;;;;10.30;2.72;;;19.60;99.90;;;;;;5077526;28;20063;-70
2022/07/14 05:59:30;;;;;;;12.60;3.10;;;19.60;99.90;;;;;;5078091;28;20354;-69
2022/07/14 06:01:56;;;;;;;12.75;3.20;;;19.50;99.90;;;;;;5077770;28;20412;-69
2022/07/14 06:04:21;;;;;;;8.52;2.83;;;19.40;99.90;;;;;;5077843;28;20028;-71
2022/07/14 06:06:48;;;;;;;10.35;2.60;;;19.50;99.90;;;;;;5077708;28;20044;-71
2022/07/14 06:09:15;;;;;;;12.00;2.97;;;19.70;99.90;;;;;;5079070;28;20094;-72
2022/07/14 06:11:45;;;;;;;11.55;3.00;;;19.60;99.90;;;;;;5078042;28;20086;-69
2022/07/14 06:14:13;;;;;;;12.40;2.83;;;19.50;99.90;;;;;;5077531;28;20032;-68
2022/07/14 06:16:40;;;;;;;13.60;3.22;;;19.70;99.90;;;;;;5077587;28;20297;-72
2022/07/14 06:19:06;;;;;;;11.63;3.05;;;19.80;99.90;;;;;;5077425;28;20032;-70
2022/07/14 06:21:32;;;;;;;9.88;2.67;;;19.90;99.90;;;;;;5077683;28;20040;-71
2022/07/14 06:23:58;;;;;;;10.52;3.00;;;19.80;99.90;;;;;;5078045;28;20036;-70
2022/07/14 06:26:24;;;;;;;11.50;3.05;;;19.90;99.90;;;;;;5078108;28;20064;-72
2022/07/14 06:28:50;;;;;;;9.93;3.13;;;19.70;99.90;;;;;;5077495;28;20093;-69
2022/07/14 06:31:16;;;;;;;12.82;3.30;;;19.70;99.90;;;;;;5077699;28;20025;-68
2022/07/14 06:33:43;;;;;;;9.65;2.55;;;19.80;99.90;;;;;;5077193;28;20362;-69
2022/07/14 06:36:34;;;;;;;9.05;2.70;;;20.00;99.90;;;;;;5077861;28;20337;-69
2022/07/14 06:39:02;;;;;;;15.13;3.03;;;20.00;99.90;;;;;;5077388;28;20059;-72
2022/07/14 06:41:29;;;;;;;14.18;2.80;;;19.90;99.90;;;;;;5077387;28;20067;-71
2022/07/14 06:43:55;;;;;;;12.35;2.88;;;19.80;99.90;;;;;;5077180;28;20360;-76
2022/07/14 06:46:23;;;;;;;7.72;2.08;;;20.10;99.90;;;;;;5077302;28;20028;-67
2022/07/14 06:48:49;;;;;;;11.93;2.80;;;20.30;99.90;;;;;;5076971;28;20029;-68
2022/07/14 06:51:15;;;;;;;10.77;2.60;;;20.40;99.90;;;;;;5077123;28;20308;-61
2022/07/14 06:53:42;;;;;;;9.88;2.50;;;20.30;99.90;;;;;;5077214;28;20037;-71
2022/07/14 06:56:08;;;;;;;9.73;2.72;;;20.30;99.90;;;;;;5077502;28;20419;-71
2022/07/14 06:58:33;;;;;;;10.00;2.90;;;20.20;99.90;;;;;;5077624;28;20178;-71
2022/07/14 07:01:00;;;;;;;9.13;2.58;;;20.20;99.90;;;;;;5077411;28;20296;-73
2022/07/14 07:03:25;;;;;;;10.63;2.67;;;20.40;99.90;;;;;;5077493;28;20089;-71
2022/07/14 07:08:36;;;;;;;12.15;2.78;;;20.20;99.90;;;;;;5077686;28;20021;-70
2022/07/14 07:11:01;;;;;;;14.52;2.75;;;20.30;99.90;;;;;;5077814;28;20116;-71
2022/07/14 07:13:27;;;;;;;12.25;2.95;;;20.30;99.90;;;;;;5077563;28;20060;-71
2022/07/14 07:15:53;;;;;;;10.07;2.53;;;20.40;99.90;;;;;;5077545;28;20082;-72
2022/07/14 07:18:19;;;;;;;12.25;3.00;;;20.40;99.90;;;;;;5077043;28;20104;-70
2022/07/14 07:20:45;;;;;;;12.65;2.53;;;20.30;99.90;;;;;;5077707;28;20036;-69
2022/07/14 07:23:11;;;;;;;9.68;2.22;;;20.50;99.90;;;;;;5078025;28;20044;-70
2022/07/14 07:25:36;;;;;;;8.95;2.50;;;20.70;99.90;;;;;;5077575;28;20086;-70
2022/07/14 07:28:03;;;;;;;8.52;2.20;;;20.90;99.90;;;;;;5077848;28;20060;-69
2022/07/14 07:30:29;;;;;;;10.57;2.17;;;21.10;99.90;;;;;;5077295;28;20071;-68
2022/07/14 07:32:55;;;;;;;6.95;2.05;;;21.10;99.90;;;;;;5078999;28;20036;-70
2022/07/14 07:35:21;;;;;;;10.30;2.28;;;21.30;99.90;;;;;;5081703;28;20090;-71
2022/07/14 07:37:48;;;;;;;9.85;2.30;;;21.40;99.90;;;;;;5081724;28;20128;-70
2022/07/14 07:40:15;;;;;;;8.30;2.05;;;21.70;99.90;;;;;;5081633;28;20395;-71
2022/07/14 07:42:41;;;;;;;8.60;2.38;;;21.80;99.90;;;;;;5082142;28;20390;-71
2022/07/14 07:45:07;;;;;;;9.73;2.25;;;22.00;99.90;;;;;;5081357;28;20055;-70
2022/07/14 07:47:33;;;;;;;9.75;1.85;;;22.10;99.90;;;;;;5081811;28;20119;-71
2022/07/14 07:49:59;;;;;;;9.93;2.08;;;21.90;99.90;;;;;;5081193;28;20028;-72
2022/07/14 07:52:25;;;;;;;6.25;1.67;;;22.20;99.90;;;;;;5082480;28;20055;-70
2022/07/14 07:54:51;;;;;;;7.50;2.00;;;22.20;99.90;;;;;;5080985;28;20303;-71
2022/07/14 07:57:18;;;;;;;7.65;2.20;;;22.20;99.90;;;;;;5081433;28;20426;-71
2022/07/14 07:59:44;;;;;;;7.53;2.10;;;22.10;99.90;;;;;;5081468;28;20029;-68
2022/07/14 08:02:09;;;;;;;6.88;1.75;;;22.00;99.90;;;;;;5080215;28;20147;-70
2022/07/14 08:04:35;;;;;;;9.63;1.73;;;21.90;99.90;;;;;;5080815;28;20029;-71
2022/07/14 08:07:01;;;;;;;8.77;2.10;;;21.90;99.90;;;;;;5080841;28;20028;-68
2022/07/14 08:09:27;;;;;;;8.20;1.55;;;21.90;99.90;;;;;;5080850;28;20094;-70
2022/07/14 08:11:54;;;;;;;6.30;1.60;;;22.00;99.90;;;;;;5081635;28;20032;-70
2022/07/14 08:17:04;;;;;;;4.15;1.33;;;22.80;99.90;;;;;;5080969;28;20032;-68
2022/07/14 08:19:32;;;;;;;7.60;1.40;;;23.00;99.90;;;;;;5080647;28;20094;-71
2022/07/14 08:21:58;;;;;;;8.70;1.80;;;23.10;99.90;;;;;;5080567;28;20029;-72
2022/07/14 08:24:24;;;;;;;7.15;1.45;;;23.40;99.90;;;;;;5080528;28;20044;-72
2022/07/14 08:26:51;;;;;;;7.07;1.88;;;23.60;99.90;;;;;;5080360;28;20087;-71
2022/07/14 08:29:17;;;;;;;4.35;1.38;;;24.00;99.90;;;;;;5080561;28;20308;-73
2022/07/14 08:31:43;;;;;;;5.60;1.38;;;24.10;99.90;;;;;;5079698;28;20029;-71
2022/07/14 08:34:09;;;;;;;5.65;1.58;;;24.30;99.90;;;;;;5080342;28;20043;-71
2022/07/14 08:36:35;;;;;;;8.57;1.85;;;24.50;99.90;;;;;;5080551;28;20418;-72
2022/07/14 08:39:01;;;;;;;10.20;1.88;;;23.90;99.90;;;;;;5080382;28;20040;-72
2022/07/14 08:41:28;;;;;;;5.72;1.70;;;23.90;99.90;;;;;;5080300;28;20079;-69
2022/07/14 08:43:55;;;;;;;7.60;1.58;;;23.90;99.90;;;;;;5079100;28;20050;-72
2022/07/14 08:46:22;;;;;;;5.20;1.65;;;24.10;99.90;;;;;;5080018;28;20040;-71
2022/07/14 08:48:48;;;;;;;7.85;1.67;;;24.40;99.90;;;;;;5080039;28;20041;-72
2022/07/14 08:51:14;;;;;;;7.90;1.60;;;24.80;99.90;;;;;;5080129;28;20328;-72
2022/07/14 08:53:43;;;;;;;7.47;1.90;;;25.30;99.90;;;;;;5080172;28;20024;-71
2022/07/14 08:56:09;;;;;;;5.47;1.75;;;25.70;99.90;;;;;;5079914;28;20061;-71
2022/07/14 08:58:35;;;;;;;7.75;1.73;;;25.40;99.90;;;;;;5080172;28;20051;-71
2022/07/14 09:01:01;;;;;;;4.90;1.40;;;25.30;99.90;;;;;;5080218;28;20309;-70
2022/07/14 09:03:26;;;;;;;8.38;1.38;;;24.80;99.90;;;;;;5078993;28;20041;-69
2022/07/14 09:05:53;;;;;;;5.20;1.38;;;25.20;99.90;;;;;;5062458;28;20305;-69
2022/07/14 09:08:19;;;;;;;6.72;1.42;;;25.30;99.90;;;;;;5080007;28;20410;-72
2022/07/14 09:10:46;;;;;;;5.65;1.48;;;25.40;99.90;;;;;;5079935;28;20053;-72
2022/07/14 09:13:14;;;;;;;3.80;1.15;;;25.00;99.90;;;;;;5079968;28;20127;-72
2022/07/14 09:15:44;;;;;;;4.70;0.90;;;24.80;99.90;;;;;;5078759;28;20032;-69
2022/07/14 09:18:27;;;;;;;7.22;1.45;;;24.90;99.90;;;;;;5080718;28;20058;-68
2022/07/14 09:20:58;;;;;;;5.35;1.33;;;24.40;99.90;;;;;;5081111;28;20457;-72
2022/07/14 09:23:33;;;;;;;5.05;1.58;;;23.70;99.90;;;;;;5080607;28;20028;-68
2022/07/14 09:26:11;;;;;;;6.30;1.38;;;23.70;99.90;;;;;;5079577;28;20395;-68
2022/07/14 09:28:41;;;;;;;7.43;1.65;;;24.00;99.90;;;;;;5079889;28;20110;-70
2022/07/14 09:31:28;;;;;;;3.40;0.90;;;24.10;99.90;;;;;;5079485;28;20541;-70
2022/07/14 09:34:05;;;;;;;4.35;1.17;;;24.10;99.90;;;;;;5080353;28;20029;-67
2022/07/14 09:36:33;;;;;;;6.03;1.00;;;24.20;99.90;;;;;;5079860;28;20441;-69
2022/07/14 09:39:01;;;;;;;2.90;1.00;;;24.60;99.90;;;;;;5080189;28;20064;-67
2022/07/14 09:41:29;;;;;;;5.00;1.05;;;24.50;99.90;;;;;;5080473;28;20036;-66
2022/07/14 09:44:13;;;;;;;4.95;1.00;;;24.30;99.90;;;;;;5081277;28;20033;-69
2022/07/14 09:46:49;;;;;;;5.82;1.08;;;24.30;99.90;;;;;;5079507;28;20025;-69
2022/07/14 09:49:17;;;;;;;6.18;1.25;;;24.30;99.90;;;;;;5080704;28;20044;-67
2022/07/14 09:52:03;;;;;;;5.38;1.38;;;24.20;99.90;;;;;;5081049;28;20351;-69
2022/07/14 09:54:46;;;;;;;3.92;1.33;;;24.00;99.90;;;;;;5081420;28;20115;-68
2022/07/14 09:57:15;;;;;;;5.82;1.05;;;24.50;99.90;;;;;;5079255;28;20049;-68
2022/07/14 09:59:47;;;;;;;6.88;1.48;;;25.20;99.90;;;;;;5080963;28;20101;-69
2022/07/14 10:02:21;;;;;;;8.32;1.15;;;25.40;99.90;;;;;;5079263;28;20037;-68
2022/07/14 10:04:48;;;;;;;5.10;0.88;;;25.70;99.90;;;;;;5079117;28;20037;-71
2022/07/14 10:07:15;;;;;;;1.85;0.70;;;26.20;99.90;;;;;;5079900;28;20043;-71
2022/07/14 10:10:12;;;;;;;5.43;1.00;;;26.30;99.90;;;;;;5080397;28;20345;-67
2022/07/14 10:12:41;;;;;;;2.38;0.73;;;26.40;99.90;;;;;;5080416;28;20106;-66
2022/07/14 10:15:12;;;;;;;2.95;0.90;;;26.30;99.90;;;;;;5080570;28;20106;-69
2022/07/14 10:17:40;;;;;;;3.70;0.90;;;26.80;99.90;;;;;;5078549;28;20029;-69
2022/07/14 10:20:11;;;;;;;5.88;0.70;;;26.70;99.90;;;;;;5079732;28;20032;-67
2022/07/14 10:22:38;;;;;;;4.57;0.90;;;27.10;99.90;;;;;;5080574;28;20105;-66
2022/07/14 10:25:06;;;;;;;5.60;1.00;;;27.20;99.90;;;;;;5079695;28;20020;-66
2022/07/14 10:27:32;;;;;;;4.30;0.90;;;27.00;99.90;;;;;;5080214;28;20112;-70
2022/07/14 10:29:58;;;;;;;5.18;0.70;;;26.80;99.90;;;;;;5079957;28;20080;-68
2022/07/14 10:32:36;;;;;;;5.35;1.10;;;27.20;99.70;;;;;;5080245;28;20024;-68
2022/07/14 10:35:23;;;;;;;2.75;0.80;;;27.60;99.00;;;;;;5080069;28;20138;-68
2022/07/14 10:38:17;;;;;;;3.10;0.63;;;27.90;97.30;;;;;;5080504;28;20078;-68
2022/07/14 10:41:01;;;;;;;3.22;0.80;;;27.70;95.90;;;;;;5080378;28;20423;-69
2022/07/14 10:43:50;;;;;;;3.35;0.98;;;28.00;97.40;;;;;;5079381;28;20047;-68
2022/07/14 10:46:33;;;;;;;4.05;1.10;;;28.30;98.00;;;;;;5079691;28;20036;-72
2022/07/14 10:49:01;;;;;;;4.03;1.10;;;28.40;97.30;;;;;;5077630;28;20047;-69
2022/07/14 10:51:28;;;;;;;5.55;1.10;;;28.30;98.50;;;;;;5077764;28;20028;-70
2022/07/14 10:54:15;;;;;;;2.70;1.10;;;28.30;98.30;;;;;;5079148;28;20028;-69
2022/07/14 10:56:43;;;;;;;4.68;1.00;;;27.80;98.50;;;;;;5078119;28;20062;-70
2022/07/14 10:59:28;;;;;;;10.48;1.33;;;28.10;99.30;;;;;;5078713;28;20068;-69
2022/07/14 11:02:14;;;;;;;4.82;1.45;;;28.00;99.40;;;;;;5079781;28;20321;-69
2022/07/14 11:04:59;;;;;;;4.65;1.10;;;27.40;98.10;;;;;;5078500;28;20036;-69
2022/07/14 11:07:44;;;;;;;6.30;1.45;;;27.40;97.40;;;;;;5078708;28;20113;-68
2022/07/14 11:10:19;;;;;;;7.00;1.40;;;26.50;97.90;;;;;;5079499;28;20027;-68
2022/07/14 11:13:03;;;;;;;6.15;1.15;;;27.50;97.50;;;;;;5077989;28;20036;-67
2022/07/14 11:15:46;;;;;;;5.25;1.38;;;28.60;96.20;;;;;;5078039;28;20034;-67
2022/07/14 11:18:17;;;;;;;;;;;30.20;94.50;;;;;;5079152;28;20040;-66
2022/07/14 11:20:50;;;;;;;5.40;1.23;;;31.70;91.70;;;;;;5078871;28;20007;-70
2022/07/14 11:23:21;;;;;;;3.85;1.13;;;31.50;87.50;;;;;;5078232;28;20426;-69
2022/07/14 11:25:48;;;;;;;5.22;1.40;;;31.50;85.40;;;;;;5079446;28;20434;-68
2022/07/14 11:28:33;;;;;;;3.45;1.23;;;31.10;85.60;;;;;;5078598;28;20021;-68
2022/07/14 11:31:14;;;;;;;4.35;1.13;;;30.80;84.80;;;;;;5076877;28;20089;-68
2022/07/14 11:36:32;;;;;;;6.97;1.10;;;30.70;80.70;;;;;;5077317;28;20017;-67
2022/07/14 11:39:16;;;;;;;3.70;1.10;;;30.20;81.30;;;;;;5078375;28;20028;-68
2022/07/14 11:41:45;;;;;;;4.15;1.20;;;30.60;79.60;;;;;;5077374;28;20016;-68
2022/07/14 11:44:35;;;;;;;3.72;1.30;;;29.50;84.40;;;;;;5077882;28;20062;-68
2022/07/14 11:47:04;;;;;;;4.63;1.30;;;29.10;84.20;;;;;;5078071;28;20028;-68
2022/07/14 11:49:31;;;;;;;7.45;1.20;;;28.90;86.90;;;;;;5077469;28;20043;-69
2022/07/14 11:51:59;;;;;;;8.73;2.00;;;28.30;86.70;;;;;;5077032;28;20047;-68
2022/07/14 11:54:25;;;;;;;3.10;1.05;;;28.10;88.10;;;;;;5078243;28;20067;-68
2022/07/14 11:57:06;;;;;;;2.55;1.10;;;28.30;89.90;;;;;;5078230;28;20048;-70
2022/07/14 11:59:33;;;;;;;3.47;1.17;;;29.20;84.30;;;;;;5078255;28;20037;-68
2022/07/14 12:02:17;;;;;;;2.05;1.20;;;29.60;85.80;;;;;;5061038;28;20032;-69
2022/07/14 12:04:52;;;;;;;4.20;1.20;;;30.90;82.60;;;;;;5078491;28;20040;-68
2022/07/14 12:07:20;;;;;;;2.80;1.30;;;31.90;78.20;;;;;;5078440;28;20101;-68
2022/07/14 12:09:46;;;;;;;2.55;1.23;;;32.40;76.90;;;;;;5078229;28;20032;-69
2022/07/14 12:12:13;;;;;;;2.63;1.10;;;32.30;73.30;;;;;;5076952;28;20388;-68
2022/07/14 12:14:50;;;;;;;2.88;1.05;;;32.10;73.70;;;;;;5077606;28;20288;-70
2022/07/14 12:17:18;;;;;;;3.83;1.20;;;32.40;71.40;;;;;;5077468;28;20025;-71
2022/07/14 12:19:44;;;;;;;3.80;1.02;;;32.20;70.00;;;;;;5080131;28;20038;-69
2022/07/14 12:22:10;;;;;;;3.85;1.05;;;32.40;71.10;;;;;;5081125;28;20123;-69
2022/07/14 12:24:37;;;;;;;2.72;1.10;;;32.70;68.70;;;;;;5081474;28;20300;-67
2022/07/14 12:27:05;;;;;;;5.07;1.20;;;32.40;66.50;;;;;;5082028;28;20086;-68
2022/07/14 12:29:33;;;;;;;3.22;0.90;;;33.30;68.10;;;;;;5081562;28;20025;-69
2022/07/14 12:32:00;;;;;;;3.58;1.10;;;34.90;65.20;;;;;;5081212;28;20384;-66
2022/07/14 12:34:31;;;;;;;2.28;1.08;;;34.40;61.60;;;;;;5081416;28;20067;-69
2022/07/14 12:37:01;;;;;;;4.40;1.23;;;34.30;62.00;;;;;;5081692;28;20385;-66
2022/07/14 12:39:29;;;;;;;4.00;1.10;;;34.60;61.90;;;;;;5081244;28;20052;-71
2022/07/14 12:41:55;;;;;;;2.70;1.10;;;34.40;61.10;;;;;;5081990;28;20033;-70
2022/07/14 12:44:21;;;;;;;2.83;1.00;;;33.70;60.80;;;;;;5081820;28;20056;-67
2022/07/14 12:47:08;;;;;;;3.90;1.20;;;32.90;62.50;;;;;;5082773;28;20043;-67
2022/07/14 12:49:48;;;;;;;4.43;1.02;;;31.30;63.70;;;;;;5082898;28;20483;-68
2022/07/14 12:52:15;;;;;;;2.97;0.98;;;31.10;67.30;;;;;;5081634;28;20080;-67
2022/07/14 12:54:42;;;;;;;4.25;1.25;;;30.90;67.70;;;;;;5081827;28;20074;-67
2022/07/14 12:57:18;;;;;;;2.58;0.95;;;31.30;66.80;;;;;;5082069;28;20061;-68
2022/07/14 12:59:46;;;;;;;3.60;1.20;;;31.50;67.70;;;;;;5081383;28;20028;-69
2022/07/14 13:02:22;;;;;;;5.93;1.20;;;31.70;68.30;;;;;;5081301;28;20045;-67
2022/07/14 13:04:51;;;;;;;4.05;1.17;;;31.80;68.40;;;;;;5081911;28;20280;-67
2022/07/14 13:07:25;;;;;;;3.92;1.30;;;31.80;68.30;;;;;;5080679;28;20452;-68